Time;durP1;ratioP1;P1;durP2;ratioP2;P2;SDS_P1;SDS_P2;PMS_P1;PMS_P2;Temp;Humidity;BMP_temperature;BMP_pressure;BME280_temperature;BME280_humidity;BME280_pressure;Samples;Min_cycle;Max_cycle;Signal;HPM_P1;HPM_P2
2021/12/08 00:00:09;;;;;;;6.82;1.77;;;;;;;15.92;43.45;99169.22;5007657;28;20438;-53
2021/12/08 00:02:36;;;;;;;;;;;;;;;15.92;43.45;99155.88;5009908;28;20075;-51
2021/12/08 00:05:04;;;;;;;4.40;1.63;;;;;;;15.94;43.53;99160.03;5011348;28;19927;-50
2021/12/08 00:07:32;;;;;;;4.75;1.73;;;;;;;15.93;44.02;99174.41;5009191;28;20078;-51
2021/12/08 00:10:27;;;;;;;2.72;1.50;;;;;;;15.92;43.52;99182.59;5008036;28;20046;-49
2021/12/08 00:13:05;;;;;;;3.28;1.20;;;;;;;15.91;44.46;99195.13;5011671;28;20053;-54
2021/12/08 00:15:44;;;;;;;3.55;1.40;;;;;;;15.89;43.65;99193.66;5007785;28;20407;-49
2021/12/08 00:18:14;;;;;;;4.38;1.55;;;;;;;15.89;44.43;99181.13;5006843;28;20586;-55
2021/12/08 00:20:43;;;;;;;4.90;1.45;;;;;;;15.88;44.67;99182.16;5007405;28;20133;-52
2021/12/08 00:23:10;;;;;;;2.28;1.20;;;;;;;15.88;43.63;99167.94;5008082;28;20061;-49
2021/12/08 00:25:39;;;;;;;2.75;1.60;;;;;;;15.87;43.75;99172.44;5017545;28;20077;-51
2021/12/08 00:28:07;;;;;;;3.40;1.35;;;;;;;15.88;44.89;99162.59;5009402;28;20088;-53
2021/12/08 00:30:37;;;;;;;2.85;1.33;;;;;;;15.88;44.85;99152.75;5010638;28;20379;-54
2021/12/08 00:33:05;;;;;;;3.70;1.50;;;;;;;15.89;44.34;99149.06;5014249;28;20049;-50
2021/12/08 00:35:31;;;;;;;2.65;1.45;;;;;;;15.88;43.94;99157.25;5012960;28;20129;-50
2021/12/08 00:37:59;;;;;;;2.38;1.45;;;;;;;15.88;43.93;99151.91;5012506;28;20338;-49
2021/12/08 00:40:27;;;;;;;4.43;1.50;;;;;;;15.88;44.75;99151.91;5012882;28;20153;-53
2021/12/08 00:42:55;;;;;;;2.58;1.42;;;;;;;15.89;44.14;99145.56;5010446;28;20153;-51
2021/12/08 00:45:23;;;;;;;2.22;1.10;;;;;;;15.88;43.95;99157.25;5014172;28;20133;-51
2021/12/08 00:47:52;;;;;;;2.50;1.30;;;;;;;15.87;44.06;99145.75;5008459;28;20042;-51
2021/12/08 00:50:22;;;;;;;3.08;1.25;;;;;;;15.87;44.60;99147.59;5009908;28;20485;-54
2021/12/08 00:52:51;;;;;;;2.08;1.20;;;;;;;15.88;44.67;99162.59;5016608;28;20077;-53
2021/12/08 00:55:19;;;;;;;4.05;1.58;;;;;;;15.86;45.01;99160.13;5013223;28;20069;-53
2021/12/08 00:57:46;;;;;;;3.70;1.23;;;;;;;15.86;44.35;99176.16;5011046;28;20065;-53
2021/12/08 01:00:18;;;;;;;2.88;1.20;;;;;;;15.86;43.95;99186.00;5011964;28;20054;-51
2021/12/08 01:02:45;;;;;;;2.53;1.20;;;;;;;15.86;44.25;99191.34;5009877;28;20103;-50
2021/12/08 01:05:15;;;;;;;2.67;1.50;;;;;;;15.86;44.28;99196.69;5013069;28;20148;-52
2021/12/08 01:07:42;;;;;;;3.70;1.15;;;;;;;15.86;44.31;99196.69;5010244;28;20124;-50
2021/12/08 01:10:13;;;;;;;4.53;1.65;;;;;;;15.86;44.96;99202.03;5012573;28;20085;-50
2021/12/08 01:13:00;;;;;;;1.55;1.00;;;;;;;15.86;44.50;99192.19;5009013;28;20053;-50
2021/12/08 01:15:28;;;;;;;2.75;1.20;;;;;;;15.85;45.17;99187.84;5010781;28;20073;-52
2021/12/08 01:17:55;;;;;;;2.47;1.20;;;;;;;15.86;44.43;99186.00;5012756;28;20045;-52
2021/12/08 01:20:22;;;;;;;1.85;1.20;;;;;;;15.86;44.54;99183.34;5017840;28;20129;-50
2021/12/08 01:22:49;;;;;;;2.03;1.30;;;;;;;15.86;45.25;99188.69;5009325;28;20082;-49
2021/12/08 01:25:15;;;;;;;3.22;1.35;;;;;;;15.86;44.94;99189.50;5011792;28;20043;-49
2021/12/08 01:27:43;;;;;;;3.13;1.23;;;;;;;15.86;45.15;99202.03;5012578;28;20050;-53
2021/12/08 01:30:12;;;;;;;2.78;1.42;;;;;;;15.86;44.79;99207.38;5011856;28;20053;-52
2021/12/08 01:32:38;;;;;;;2.03;1.20;;;;;;;15.86;45.50;99212.72;5013234;28;20046;-51
2021/12/08 01:35:07;;;;;;;3.65;1.13;;;;;;;15.86;44.59;99218.06;5012460;28;20437;-53
2021/12/08 01:37:34;;;;;;;2.40;1.25;;;;;;;15.87;44.80;99219.72;5011740;28;20133;-50
2021/12/08 01:40:04;;;;;;;2.53;1.30;;;;;;;15.86;44.45;99221.56;5013325;28;20078;-55
2021/12/08 01:42:36;;;;;;;2.38;1.10;;;;;;;15.86;44.70;99218.06;5010367;28;20046;-53
2021/12/08 01:47:50;;;;;;;1.38;0.95;;;;;;;15.87;44.98;99219.72;5014764;28;20333;-49
2021/12/08 01:50:17;;;;;;;4.28;1.10;;;;;;;15.86;45.38;99218.06;5010529;28;20129;-53
2021/12/08 01:52:44;;;;;;;1.55;0.90;;;;;;;15.86;45.09;99218.06;5010783;28;20132;-51
2021/12/08 01:55:10;;;;;;;2.03;0.93;;;;;;;15.85;44.76;99214.56;5015144;28;20137;-52
2021/12/08 01:57:42;;;;;;;3.28;1.10;;;;;;;15.86;45.54;99221.56;5009497;28;20045;-52
2021/12/08 02:00:15;;;;;;;1.60;0.90;;;;;;;15.85;45.25;99216.41;5005538;28;20125;-52
2021/12/08 02:02:42;;;;;;;1.40;1.00;;;;;;;15.84;44.86;99220.94;5006604;28;20060;-53
2021/12/08 02:05:09;;;;;;;2.30;1.00;;;;;;;15.84;45.63;99223.59;5002395;28;20127;-51
2021/12/08 02:07:36;;;;;;;1.85;0.80;;;;;;;15.85;44.86;99229.78;5010123;28;20038;-53
2021/12/08 02:10:05;;;;;;;2.35;0.90;;;;;;;15.85;45.84;99238.59;5012150;28;20136;-53
2021/12/08 02:12:36;;;;;;;1.70;0.90;;;;;;;15.84;45.18;99242.31;5011446;28;20147;-51
2021/12/08 02:15:04;;;;;;;3.35;1.15;;;;;;;15.84;45.78;99238.75;5007360;28;20104;-50
2021/12/08 02:17:31;;;;;;;1.75;0.95;;;;;;;15.83;45.21;99232.59;5008435;28;20057;-51
2021/12/08 02:19:57;;;;;;;2.03;0.90;;;;;;;15.84;45.23;99238.75;5009635;28;20505;-52
2021/12/08 02:22:24;;;;;;;2.22;1.00;;;;;;;15.83;45.36;99245.97;5011848;28;20140;-49
2021/12/08 02:24:51;;;;;;;2.97;1.20;;;;;;;15.83;45.96;99245.13;5009092;28;20048;-48
2021/12/08 02:27:17;;;;;;;2.15;1.02;;;;;;;15.82;45.62;99246.97;5013972;28;20137;-52
2021/12/08 02:29:53;;;;;;;2.78;0.98;;;;;;;15.84;45.23;99246.78;5012771;28;20601;-51
2021/12/08 02:48:36;;;;;;;2.72;0.93;;;;;;;15.80;46.18;99257.03;5010312;28;20038;-50
2021/12/08 02:51:02;;;;;;;4.00;1.27;;;;;;;15.81;45.46;99255.19;5013654;28;20136;-49
2021/12/08 02:53:31;;;;;;;3.80;1.35;;;;;;;15.80;45.41;99257.03;5013591;28;20322;-51
2021/12/08 02:55:58;;;;;;;3.60;1.23;;;;;;;15.78;45.89;99254.50;5006715;28;20064;-53
2021/12/08 02:58:25;;;;;;;3.10;1.50;;;;;;;15.79;45.71;99260.69;5010927;28;20129;-52
2021/12/08 03:01:03;;;;;;;2.63;1.05;;;;;;;15.78;46.25;99259.84;5011467;28;20062;-52
2021/12/08 03:03:30;;;;;;;2.17;1.00;;;;;;;15.81;46.08;99249.84;5010554;28;20108;-50
2021/12/08 03:05:59;;;;;;;2.55;1.17;;;;;;;15.78;45.16;99259.84;5007410;28;20141;-50
2021/12/08 03:08:25;;;;;;;2.35;1.38;;;;;;;15.78;45.36;99259.03;5011009;28;20564;-52
2021/12/08 03:10:54;;;;;;;2.42;1.20;;;;;;;15.77;46.44;99263.53;5000386;28;20490;-52
2021/12/08 03:13:32;;;;;;;3.45;1.10;;;;;;;15.77;46.44;99273.41;5010396;28;20104;-49
2021/12/08 03:15:59;;;;;;;2.75;1.05;;;;;;;15.77;45.10;99262.72;5006583;28;20050;-54
2021/12/08 03:18:33;;;;;;;3.80;0.88;;;;;;;15.76;45.73;99275.25;5005648;28;20169;-51
2021/12/08 03:21:01;;;;;;;2.08;1.23;;;;;;;15.77;45.56;99284.91;5010398;28;20096;-52
2021/12/08 03:24:09;;;;;;;4.60;1.50;;;;;;;15.77;46.04;99281.41;5005373;28;20172;-52
2021/12/08 03:26:27;;;;;;;1.95;1.20;;;;;;;15.76;46.40;99283.25;5002784;28;20216;-52
2021/12/08 03:29:46;;;;;;;3.72;1.27;;;;;;;15.75;45.38;99283.41;5009060;28;20121;-52
2021/12/08 03:31:47;;;;;;;3.17;1.15;;;;;;;15.76;45.91;99277.09;5003272;28;20128;-50
2021/12/08 03:34:14;;;;;;;4.15;1.10;;;;;;;15.75;46.18;99291.44;5012363;28;20057;-51
2021/12/08 03:36:41;;;;;;;5.47;1.70;;;;;;;15.74;46.32;99290.59;5013214;28;20124;-51
2021/12/08 03:39:07;;;;;;;2.65;1.20;;;;;;;15.74;46.23;99279.91;5006878;28;20046;-53
2021/12/08 03:41:35;;;;;;;4.32;1.80;;;;;;;15.74;46.26;99279.09;5002919;28;20081;-50
2021/12/08 03:44:03;;;;;;;2.65;1.25;;;;;;;15.73;46.24;99274.75;5006739;28;20554;-51
2021/12/08 03:46:35;;;;;;;3.90;1.17;;;;;;;15.73;46.48;99274.75;5004696;28;20053;-49
2021/12/08 03:49:05;;;;;;;2.03;1.00;;;;;;;15.73;45.80;99278.25;5007697;28;20140;-50
2021/12/08 03:51:32;;;;;;;1.95;0.93;;;;;;;15.73;45.48;99296.13;5013745;28;20153;-50
2021/12/08 03:53:58;;;;;;;3.72;1.55;;;;;;;15.72;46.39;99297.97;5012387;28;20056;-53
2021/12/08 03:56:25;;;;;;;5.63;1.40;;;;;;;15.72;46.33;99308.66;5018238;28;20056;-51
2021/12/08 03:58:51;;;;;;;2.22;1.20;;;;;;;15.72;46.18;99302.50;5012470;28;20429;-51
2021/12/08 04:01:18;;;;;;;3.28;1.10;;;;;;;15.71;45.77;99309.63;5014571;28;20493;-50
2021/12/08 04:03:49;;;;;;;1.80;1.00;;;;;;;15.71;46.24;99309.63;5011849;28;20054;-52
2021/12/08 04:06:31;;;;;;;2.67;1.25;;;;;;;15.71;45.21;99314.16;5009727;28;20517;-50
2021/12/08 04:09:02;;;;;;;3.10;1.10;;;;;;;15.72;45.63;99326.53;5009757;28;20046;-52
2021/12/08 04:11:29;;;;;;;3.78;1.17;;;;;;;15.72;46.14;99323.84;5011794;28;20261;-49
2021/12/08 04:13:59;;;;;;;4.03;1.30;;;;;;;15.70;46.40;99332.03;5012452;28;20052;-50
2021/12/08 04:16:33;;;;;;;4.00;1.13;;;;;;;15.71;45.76;99332.84;5013879;28;20517;-49
2021/12/08 04:19:01;;;;;;;5.53;1.10;;;;;;;15.70;45.45;99336.53;5015794;28;20042;-50
2021/12/08 04:21:28;;;;;;;5.47;1.38;;;;;;;15.69;45.33;99335.72;5010276;28;20442;-50
2021/12/08 04:23:55;;;;;;;1.52;0.98;;;;;;;15.69;46.00;99341.06;5015349;28;20525;-49
2021/12/08 04:26:45;;;;;;;3.42;1.10;;;;;;;15.68;45.73;99336.72;5011372;28;20049;-53
2021/12/08 04:29:14;;;;;;;4.10;1.27;;;;;;;15.68;45.56;99342.06;5010490;28;20132;-49
2021/12/08 04:31:42;;;;;;;2.63;1.20;;;;;;;15.68;46.24;99344.75;5013623;28;20050;-51
2021/12/08 04:34:16;;;;;;;2.83;1.23;;;;;;;15.68;45.25;99342.06;5013005;28;20130;-51
2021/12/08 04:36:47;;;;;;;3.05;1.08;;;;;;;15.69;45.95;99334.88;5016342;28;20124;-53
2021/12/08 04:39:28;;;;;;;2.67;1.27;;;;;;;15.68;45.66;99333.22;5013999;28;20046;-53
2021/12/08 04:42:03;;;;;;;4.40;1.23;;;;;;;15.68;46.35;99338.56;5013371;28;20144;-53
2021/12/08 04:44:37;;;;;;;5.35;1.15;;;;;;;15.67;45.40;99348.41;5009051;28;20493;-53
2021/12/08 04:50:31;;;;;;;2.70;1.13;;;;;;;15.69;45.49;99348.25;5014446;28;20360;-52
2021/12/08 05:04:31;;;;;;;2.85;1.00;;;;;;;16.14;45.21;99368.00;5005117;28;20049;-50
2021/12/08 05:07:17;;;;;;;3.65;1.00;;;;;;;16.25;44.62;99354.22;5010744;28;20503;-54
2021/12/08 05:09:47;;;;;;;2.40;0.82;;;;;;;16.36;45.48;99347.63;5008492;28;20048;-52
2021/12/08 05:12:23;;;;;;;4.10;1.27;;;;;;;16.45;45.26;99366.09;5003488;28;21320;-53
2021/12/08 05:15:09;;;;;;;3.30;1.45;;;;;;;16.55;44.90;99368.53;5005467;28;20060;-52
2021/12/08 05:17:44;;;;;;;3.08;1.13;;;;;;;16.62;44.78;99369.47;5009380;28;20057;-53
2021/12/08 05:20:20;;;;;;;3.97;1.20;;;;;;;16.70;44.52;99355.19;5005763;28;20050;-51
2021/12/08 05:22:52;;;;;;;3.10;1.17;;;;;;;16.75;44.46;99361.69;5001049;28;20311;-53
2021/12/08 05:25:24;;;;;;;5.32;1.75;;;;;;;16.81;44.23;99353.97;5011915;28;20071;-50
2021/12/08 05:27:53;;;;;;;3.20;1.15;;;;;;;16.84;44.19;99351.72;5003877;28;21130;-52
2021/12/08 05:30:25;;;;;;;4.57;1.60;;;;;;;16.87;44.01;99342.53;4997764;28;20060;-51
2021/12/08 05:32:53;;;;;;;4.72;1.45;;;;;;;16.89;44.40;99353.88;5005474;28;20133;-54
2021/12/08 05:35:22;;;;;;;2.53;1.10;;;;;;;16.90;43.81;99369.75;5005881;28;20057;-53
2021/12/08 05:37:49;;;;;;;4.60;1.25;;;;;;;16.90;43.86;99383.13;5011010;28;20080;-53
2021/12/08 05:40:22;;;;;;;4.93;1.30;;;;;;;16.90;44.06;99382.31;5007060;28;20049;-49
2021/12/08 05:42:49;;;;;;;3.17;1.23;;;;;;;16.90;43.61;99375.09;5004731;28;20061;-52
2021/12/08 05:45:20;;;;;;;3.50;1.50;;;;;;;16.88;43.87;99378.97;5006492;28;20401;-53
2021/12/08 05:47:48;;;;;;;3.47;1.17;;;;;;;16.86;44.34;99381.00;5005936;28;20046;-52
2021/12/08 05:50:24;;;;;;;3.72;1.27;;;;;;;16.84;43.69;99386.53;5010872;28;20050;-50
2021/12/08 05:52:53;;;;;;;3.80;1.65;;;;;;;16.81;44.20;99400.28;5007402;28;20160;-49
2021/12/08 05:55:21;;;;;;;5.88;1.98;;;;;;;16.78;43.86;99380.06;4998202;28;20046;-50
2021/12/08 05:57:47;;;;;;;6.18;2.05;;;;;;;16.77;44.15;99382.94;5005130;28;20135;-52
2021/12/08 06:00:37;;;;;;;2.40;1.20;;;;;;;16.73;43.73;99387.81;5001665;28;20149;-54
2021/12/08 06:03:07;;;;;;;4.03;1.42;;;;;;;16.71;44.34;99389.78;5006986;28;20085;-53
2021/12/08 06:05:34;;;;;;;5.28;1.50;;;;;;;16.70;44.18;99398.00;5001263;28;20140;-52
2021/12/08 06:08:00;;;;;;;6.45;1.90;;;;;;;16.68;43.38;99405.34;5003644;28;20136;-53
2021/12/08 06:10:33;;;;;;;4.22;1.50;;;;;;;16.65;44.39;99406.56;5010760;28;20145;-54
2021/12/08 06:13:01;;;;;;;4.80;1.93;;;;;;;16.63;43.61;99423.81;5005673;28;20164;-52
2021/12/08 06:15:28;;;;;;;4.70;1.75;;;;;;;16.60;44.00;99422.31;4999377;28;20578;-52
2021/12/08 06:17:55;;;;;;;7.55;2.20;;;;;;;16.58;44.24;99424.34;5008438;28;20080;-50
2021/12/08 06:20:23;;;;;;;4.93;1.83;;;;;;;16.56;43.84;99431.69;5002205;28;20141;-53
2021/12/08 06:22:52;;;;;;;5.50;2.05;;;;;;;16.53;43.85;99429.41;5006835;28;20130;-52
2021/12/08 06:25:21;;;;;;;6.80;2.08;;;;;;;16.50;44.12;99427.91;5003809;28;20502;-54
2021/12/08 06:27:48;;;;;;;4.38;2.10;;;;;;;16.48;43.35;99431.75;5003085;28;20653;-50
2021/12/08 06:30:21;;;;;;;5.18;2.40;;;;;;;16.45;44.05;99424.94;5005241;28;20445;-53
2021/12/08 06:32:47;;;;;;;6.10;1.90;;;;;;;16.41;43.36;99431.66;5006634;28;20073;-52
2021/12/08 06:35:23;;;;;;;4.60;1.90;;;;;;;16.39;43.38;99435.50;5005165;28;20073;-49
2021/12/08 06:37:50;;;;;;;6.72;2.33;;;;;;;16.35;43.32;99429.69;5008244;28;20135;-52
2021/12/08 06:40:31;;;;;;;5.60;2.10;;;;;;;16.32;43.73;99435.38;5004128;28;20049;-50
2021/12/08 06:43:00;;;;;;;8.43;2.42;;;;;;;16.29;43.69;99433.91;5000361;28;20391;-54
2021/12/08 06:45:31;;;;;;;4.55;1.65;;;;;;;16.27;43.51;99430.56;5006910;28;20060;-53
2021/12/08 06:48:00;;;;;;;5.68;2.15;;;;;;;16.26;43.87;99438.75;5004417;28;20052;-53
2021/12/08 06:50:32;;;;;;;5.45;1.67;;;;;;;16.22;44.48;99445.47;5001170;28;20077;-52
2021/12/08 06:52:59;;;;;;;5.40;2.10;;;;;;;16.20;43.75;99439.47;5003603;28;20739;-54
2021/12/08 06:55:30;;;;;;;6.35;1.70;;;;;;;16.18;43.48;99454.84;5001224;28;20065;-54
2021/12/08 06:58:04;;;;;;;5.63;1.75;;;;;;;16.15;44.27;99463.22;5004339;28;20085;-52
2021/12/08 07:01:13;;;;;;;6.10;1.92;;;;;;;16.11;44.62;99465.41;5005412;28;20068;-52
2021/12/08 07:06:48;;;;;;;6.05;2.00;;;;;;;16.09;44.07;99474.63;5004575;28;20355;-50
2021/12/08 07:09:24;;;;;;;5.45;1.83;;;;;;;16.07;43.65;99482.78;5004640;28;20073;-53
2021/12/08 07:11:53;;;;;;;6.40;2.00;;;;;;;16.03;44.46;99478.81;5003394;28;20128;-53
2021/12/08 07:14:22;;;;;;;4.40;1.75;;;;;;;16.00;43.68;99479.16;5005857;28;20089;-53
2021/12/08 07:16:53;;;;;;;4.90;1.98;;;;;;;15.97;44.40;99469.66;5004919;28;20056;-50
2021/12/08 07:19:34;;;;;;;4.60;2.08;;;;;;;15.95;43.66;99481.50;5001680;28;20545;-52
2021/12/08 07:22:04;;;;;;;5.20;1.60;;;;;;;15.93;43.83;99478.19;5005810;28;20168;-54
2021/12/08 07:24:38;;;;;;;5.93;1.70;;;;;;;15.92;44.22;99473.84;5007372;28;20431;-55
2021/12/08 07:27:12;;;;;;;5.63;2.03;;;;;;;15.89;44.56;99498.25;5005280;28;20128;-52
2021/12/08 07:29:42;;;;;;;5.45;1.80;;;;;;;15.88;44.71;99505.44;5010142;28;20042;-54
2021/12/08 07:32:25;;;;;;;6.25;1.88;;;;;;;15.87;44.92;99501.06;5007003;28;20375;-54
2021/12/08 07:34:53;;;;;;;7.60;2.25;;;;;;;15.87;44.22;99495.72;5012640;28;20503;-52
2021/12/08 07:37:24;;;;;;;8.27;2.03;;;;;;;15.85;43.87;99500.44;5005865;28;20144;-51
2021/12/08 07:40:00;;;;;;;5.50;1.73;;;;;;;15.86;44.93;99498.59;5004576;28;20409;-54
2021/12/08 07:42:34;;;;;;;5.05;2.00;;;;;;;15.83;44.25;99499.75;5006453;28;20140;-53
2021/12/08 07:45:08;;;;;;;3.70;1.63;;;;;;;15.83;44.30;99513.13;5009160;28;20050;-53
2021/12/08 07:47:36;;;;;;;5.20;1.85;;;;;;;15.81;43.93;99508.97;5007938;28;20037;-51
2021/12/08 07:50:13;;;;;;;7.57;1.67;;;;;;;15.79;43.98;99517.97;5010848;28;20046;-53
2021/12/08 07:52:43;;;;;;;6.25;1.92;;;;;;;15.77;43.52;99513.81;5006532;28;20137;-51
2021/12/08 07:55:18;;;;;;;5.20;2.10;;;;;;;15.74;44.62;99506.97;5006318;28;20081;-54
2021/12/08 07:57:45;;;;;;;6.90;1.70;;;;;;;15.73;43.81;99499.97;5009562;28;20045;-53
2021/12/08 08:00:24;;;;;;;7.78;1.95;;;;;;;15.73;44.90;99515.16;5007502;28;20049;-52
2021/12/08 08:02:52;;;;;;;7.50;2.10;;;;;;;15.71;44.75;99507.31;5002756;28;20046;-51
2021/12/08 08:05:27;;;;;;;5.95;1.73;;;;;;;15.70;44.26;99512.81;5007381;28;20121;-53
2021/12/08 08:07:57;;;;;;;6.15;1.67;;;;;;;15.69;44.79;99505.81;5002473;28;20506;-52
2021/12/08 08:10:27;;;;;;;8.32;1.73;;;;;;;15.67;44.17;99511.31;5010664;28;20049;-51
2021/12/08 08:12:59;;;;;;;4.82;1.63;;;;;;;15.67;45.13;99508.66;5004720;28;20056;-52
2021/12/08 08:15:29;;;;;;;4.40;1.75;;;;;;;15.67;44.82;99514.00;5013299;28;20398;-53
2021/12/08 08:17:56;;;;;;;5.47;2.05;;;;;;;15.66;43.91;99512.34;5007379;28;20168;-55
2021/12/08 08:20:30;;;;;;;3.55;1.40;;;;;;;15.64;45.10;99510.78;5001192;28;20160;-53
2021/12/08 08:22:57;;;;;;;;;;;;;;;15.64;45.13;99506.31;5007358;28;20121;-52
2021/12/08 08:25:28;;;;;;;9.32;2.05;;;;;;;15.67;44.31;99511.31;5007379;28;20348;-53
2021/12/08 08:27:55;;;;;;;7.13;1.77;;;;;;;15.67;44.73;99505.97;5006546;28;20615;-51
2021/12/08 08:30:27;;;;;;;3.70;1.50;;;;;;;15.67;45.48;99503.31;5010312;28;20157;-51
2021/12/08 08:32:55;;;;;;;6.53;1.65;;;;;;;15.67;44.80;99494.47;5004283;28;20397;-52
2021/12/08 08:35:36;;;;;;;5.53;1.77;;;;;;;15.68;44.63;99498.81;5006701;28;20077;-52
2021/12/08 08:38:05;;;;;;;5.35;1.45;;;;;;;15.68;44.63;99499.66;5008339;28;20084;-52
2021/12/08 08:40:37;;;;;;;4.32;1.58;;;;;;;15.70;45.32;99497.63;5002646;28;20124;-53
2021/12/08 08:43:07;;;;;;;4.00;1.40;;;;;;;15.71;44.81;99509.16;5008039;28;20089;-51
2021/12/08 08:45:40;;;;;;;3.60;1.52;;;;;;;15.72;44.75;99503.66;5005892;28;20104;-52
2021/12/08 08:48:14;;;;;;;7.03;1.80;;;;;;;15.75;44.11;99513.13;5004805;28;20135;-51
2021/12/08 08:50:54;;;;;;;4.75;1.73;;;;;;;15.74;45.00;99496.28;5005904;28;20057;-54
2021/12/08 08:53:26;;;;;;;4.53;1.83;;;;;;;15.76;44.73;99512.16;5006105;28;20049;-52
2021/12/08 08:55:59;;;;;;;4.40;1.58;;;;;;;15.78;44.27;99518.97;5008282;28;20343;-52
2021/12/08 08:58:31;;;;;;;4.65;1.83;;;;;;;15.79;44.61;99517.97;5007630;28;20056;-54
2021/12/08 09:01:14;;;;;;;5.15;1.40;;;;;;;15.80;43.93;99524.16;5006557;28;20056;-54
2021/12/08 09:03:50;;;;;;;5.95;2.00;;;;;;;15.81;43.79;99531.16;5007291;28;20136;-52
2021/12/08 09:06:25;;;;;;;5.07;1.65;;;;;;;15.83;44.92;99537.16;5005484;28;20080;-50
2021/12/08 09:08:52;;;;;;;3.90;1.58;;;;;;;15.84;43.73;99532.66;5005825;28;21487;-52
2021/12/08 09:11:21;;;;;;;5.97;1.50;;;;;;;15.88;44.50;99520.59;5009580;28;20054;-54
2021/12/08 09:14:00;;;;;;;5.03;1.60;;;;;;;15.89;43.97;99533.00;5006096;28;20057;-53
2021/12/08 09:16:39;;;;;;;5.00;1.35;;;;;;;15.91;44.78;99536.31;5001942;28;20511;-54
2021/12/08 09:19:15;;;;;;;6.78;1.70;;;;;;;15.93;43.19;99547.66;5007463;28;20141;-53
2021/12/08 09:21:42;;;;;;;8.73;2.22;;;;;;;15.94;44.05;99554.69;5007750;28;20119;-53
2021/12/08 09:24:21;;;;;;;4.88;1.67;;;;;;;15.96;44.79;99555.31;5006366;28;20137;-53
2021/12/08 09:26:54;;;;;;;4.45;1.58;;;;;;;16.00;44.07;99552.16;5008565;28;20052;-51
2021/12/08 09:29:30;;;;;;;4.22;1.52;;;;;;;16.06;44.46;99550.63;5000464;28;20044;-53
2021/12/08 09:32:05;;;;;;;4.38;1.45;;;;;;;16.10;43.72;99551.94;5001398;28;20556;-53
2021/12/08 09:34:57;;;;;;;3.40;1.30;;;;;;;16.16;43.74;99550.41;5005409;28;20136;-50
2021/12/08 09:37:27;;;;;;;5.13;1.40;;;;;;;16.21;44.31;99546.22;5002391;28;20057;-50
2021/12/08 09:40:21;;;;;;;3.92;1.48;;;;;;;16.26;44.16;99546.53;5007563;28;20404;-53
2021/12/08 09:42:54;;;;;;;4.20;1.63;;;;;;;16.35;44.12;99551.84;5008235;28;20041;-50
2021/12/08 09:45:31;;;;;;;5.55;1.60;;;;;;;16.40;44.12;99554.81;5005295;28;20477;-53
2021/12/08 09:48:01;;;;;;;6.97;1.30;;;;;;;16.44;43.52;99551.66;5004228;28;20050;-52
2021/12/08 09:50:28;;;;;;;2.53;1.20;;;;;;;16.49;44.18;99543.09;5005573;28;20141;-51
2021/12/08 09:52:55;;;;;;;4.38;1.40;;;;;;;16.53;44.06;99553.25;5006406;28;20501;-52
2021/12/08 09:55:21;;;;;;;2.88;1.30;;;;;;;16.58;44.11;99559.94;5010404;28;20056;-50
2021/12/08 09:57:50;;;;;;;4.75;1.23;;;;;;;16.63;43.96;99576.28;4999094;28;20054;-53
2021/12/08 10:00:29;;;;;;;4.88;1.30;;;;;;;16.66;43.61;99571.41;5002440;28;20141;-51
2021/12/08 10:02:59;;;;;;;3.83;1.40;;;;;;;16.69;43.52;99579.09;5005393;28;20071;-52
2021/12/08 10:05:28;;;;;;;4.47;1.45;;;;;;;16.70;43.34;99575.41;5004216;28;20456;-53
2021/12/08 10:07:57;;;;;;;4.45;1.30;;;;;;;16.72;43.35;99588.59;5010007;28;20050;-50
2021/12/08 10:10:25;;;;;;;5.22;1.65;;;;;;;16.71;42.25;99578.91;5006334;28;20065;-52
2021/12/08 10:12:52;;;;;;;3.78;1.15;;;;;;;16.69;42.31;99584.44;4998074;28;20136;-49
2021/12/08 10:15:20;;;;;;;7.38;1.50;;;;;;;16.66;42.41;99578.63;5003597;28;20431;-53
2021/12/08 10:17:48;;;;;;;6.40;1.58;;;;;;;16.61;41.82;99587.16;5001604;28;20448;-51
2021/12/08 10:20:31;;;;;;;5.18;1.83;;;;;;;16.57;42.57;99590.38;5005759;28;20172;-47
2021/12/08 10:23:18;;;;;;;2.38;1.33;;;;;;;16.50;42.44;99598.25;5005709;28;20133;-49
2021/12/08 10:25:48;;;;;;;4.13;1.38;;;;;;;16.47;42.94;99602.09;4999921;28;20502;-49
2021/12/08 10:28:28;;;;;;;4.30;1.45;;;;;;;16.43;42.13;99590.06;5010189;28;20045;-51
2021/12/08 10:31:04;;;;;;;2.55;1.20;;;;;;;16.41;43.07;99588.59;5002106;28;20078;-53
2021/12/08 10:34:04;;;;;;;5.35;1.40;;;;;;;16.36;42.05;99591.81;5005595;28;20413;-52
2021/12/08 10:36:45;;;;;;;4.78;1.33;;;;;;;16.32;42.66;99593.13;5006292;28;20077;-53
2021/12/08 10:39:14;;;;;;;4.05;1.63;;;;;;;16.29;43.36;99583.63;5007726;28;20342;-52
2021/12/08 10:41:56;;;;;;;6.15;1.45;;;;;;;16.26;42.91;99591.16;5003741;28;20157;-51
2021/12/08 10:44:55;;;;;;;3.95;1.50;;;;;;;16.24;42.50;99595.81;5008096;28;20062;-51
2021/12/08 10:47:31;;;;;;;5.25;1.55;;;;;;;16.22;43.22;99593.34;5001612;28;20065;-51
2021/12/08 10:55:20;;;;;;;6.05;1.40;;;;;;;16.17;43.15;99597.53;4999281;28;20045;-52
2021/12/08 10:57:50;;;;;;;3.17;1.33;;;;;;;16.17;42.90;99600.22;5002835;28;20450;-54
2021/12/08 11:00:30;;;;;;;4.28;1.40;;;;;;;16.14;43.40;99604.06;5003306;28;20080;-54
2021/12/08 11:03:05;;;;;;;4.10;1.67;;;;;;;16.13;42.83;99599.72;5008454;28;20054;-53
2021/12/08 11:05:53;;;;;;;4.28;1.58;;;;;;;16.14;42.71;99605.91;5008182;28;20050;-49
2021/12/08 11:08:25;;;;;;;3.22;1.30;;;;;;;16.12;43.16;99599.88;5004002;28;20056;-52
2021/12/08 11:11:22;;;;;;;3.47;1.40;;;;;;;16.10;43.60;99605.41;5005719;28;20445;-53
2021/12/08 11:13:59;;;;;;;2.83;1.50;;;;;;;16.10;42.69;99608.06;5001896;28;20050;-51
2021/12/08 11:16:40;;;;;;;7.18;1.73;;;;;;;16.10;43.62;99616.09;5005834;28;20053;-53
2021/12/08 11:19:18;;;;;;;4.63;1.60;;;;;;;16.09;43.65;99608.25;5005600;28;20061;-50
2021/12/08 11:21:49;;;;;;;3.67;1.48;;;;;;;16.08;44.15;99618.13;5006892;28;20484;-50
2021/12/08 11:24:32;;;;;;;5.63;1.70;;;;;;;16.09;43.34;99613.59;5005780;28;20055;-48
2021/12/08 11:27:00;;;;;;;4.10;1.40;;;;;;;16.12;43.23;99602.56;5002954;28;20133;-53
2021/12/08 11:29:29;;;;;;;3.60;1.65;;;;;;;16.14;44.20;99598.72;5004470;28;20133;-52
2021/12/08 11:32:00;;;;;;;6.18;1.83;;;;;;;16.18;43.65;99602.72;5003887;28;20085;-51
2021/12/08 11:34:30;;;;;;;4.95;1.70;;;;;;;16.22;43.03;99606.69;5007815;28;20070;-48
2021/12/08 11:37:01;;;;;;;3.97;1.70;;;;;;;16.26;43.16;99599.19;4999329;28;20137;-52
2021/12/08 11:39:33;;;;;;;4.97;2.05;;;;;;;16.29;43.96;99604.19;5000353;28;20166;-52
2021/12/08 11:42:10;;;;;;;3.70;1.87;;;;;;;16.34;44.01;99595.66;5003068;28;20081;-51
2021/12/08 11:44:40;;;;;;;4.15;1.88;;;;;;;16.36;43.01;99599.81;5004225;28;20062;-49
2021/12/08 11:47:12;;;;;;;5.13;1.60;;;;;;;16.38;43.32;99611.16;5006459;28;20508;-49
2021/12/08 11:49:48;;;;;;;3.08;1.60;;;;;;;16.41;43.73;99605.47;5005757;28;20144;-50
2021/12/08 11:52:20;;;;;;;5.05;1.75;;;;;;;16.44;43.91;99613.16;5006984;28;20430;-52
2021/12/08 11:54:48;;;;;;;4.72;1.77;;;;;;;16.48;43.02;99627.00;5003827;28;20050;-47
2021/12/08 11:57:24;;;;;;;4.43;1.42;;;;;;;16.50;43.39;99633.84;5002368;28;20594;-52
2021/12/08 11:59:55;;;;;;;3.72;2.28;;;;;;;16.54;43.06;99618.28;5012528;28;20141;-48
2021/12/08 12:02:25;;;;;;;3.85;1.75;;;;;;;16.56;42.66;99621.59;5003874;28;20073;-51
2021/12/08 12:04:53;;;;;;;4.25;1.90;;;;;;;16.59;43.07;99626.63;5010020;28;20049;-48
2021/12/08 12:07:19;;;;;;;5.88;1.75;;;;;;;16.62;42.84;99634.31;5001624;28;20049;-48
2021/12/08 12:09:47;;;;;;;4.80;1.77;;;;;;;16.66;43.40;99642.81;5004968;28;20137;-47
2021/12/08 12:12:14;;;;;;;4.97;2.08;;;;;;;16.69;43.68;99640.63;5004587;28;20054;-51
2021/12/08 12:14:41;;;;;;;5.43;2.17;;;;;;;16.71;42.61;99635.94;5007964;28;20046;-51
2021/12/08 12:17:08;;;;;;;3.30;1.73;;;;;;;16.73;42.90;99644.66;5017077;28;20054;-48
2021/12/08 12:19:44;;;;;;;4.88;1.92;;;;;;;16.76;43.28;99648.81;5009380;28;20084;-48
2021/12/08 12:22:31;;;;;;;4.45;2.00;;;;;;;16.77;42.67;99655.84;5006959;28;20089;-49
2021/12/08 12:25:06;;;;;;;7.60;2.08;;;;;;;16.77;42.77;99655.84;5006663;28;20133;-49
2021/12/08 12:28:11;;;;;;;3.80;1.77;;;;;;;16.75;43.05;99650.66;5002961;28;20136;-49
2021/12/08 12:30:49;;;;;;;4.88;1.73;;;;;;;16.75;42.25;99653.31;5006329;28;20133;-52
2021/12/08 12:33:22;;;;;;;3.30;1.92;;;;;;;16.77;42.85;99650.50;5012169;28;20044;-49
2021/12/08 12:35:51;;;;;;;3.40;1.88;;;;;;;16.75;42.63;99653.31;5007316;28;20148;-53
2021/12/08 12:38:33;;;;;;;4.90;2.15;;;;;;;16.76;43.18;99660.38;5003672;28;20050;-50